sensor_id;sensor_type;location;lat;lon;timestamp;pressure;altitude;pressure_sealevel;temperature;humidity
76374;BME280;65197;50.164;8.012;2023-11-19T00:00:33;73069.88;;;-144.13;100.00
76374;BME280;65197;50.164;8.012;2023-11-19T00:02:59;73065.97;;;-144.13;100.00
76374;BME280;65197;50.164;8.012;2023-11-19T00:05:24;73073.78;;;-144.13;100.00
76374;BME280;65197;50.164;8.012;2023-11-19T00:07:50;73083.53;;;-144.13;100.00
76374;BME280;65197;50.164;8.012;2023-11-19T00:10:16;73081.59;;;-144.13;100.00
76374;BME280;65197;50.164;8.012;2023-11-19T00:12:47;73077.69;;;-144.13;100.00
76374;BME280;65197;50.164;8.012;2023-11-19T00:15:15;73069.88;;;-144.13;100.00
76374;BME280;65197;50.164;8.012;2023-11-19T00:17:42;73069.88;;;-144.13;100.00
76374;BME280;65197;50.164;8.012;2023-11-19T00:20:20;73062.09;;;-144.13;100.00
76374;BME280;65197;50.164;8.012;2023-11-19T00:22:47;73071.84;;;-144.13;100.00
76374;BME280;65197;50.164;8.012;2023-11-19T00:25:20;73065.97;;;-144.13;100.00
76374;BME280;65197;50.164;8.012;2023-11-19T00:27:46;73056.22;;;-144.13;100.00
76374;BME280;65197;50.164;8.012;2023-11-19T00:30:13;73050.38;;;-144.13;100.00
76374;BME280;65197;50.164;8.012;2023-11-19T00:32:39;73054.28;;;-144.13;100.00
76374;BME280;65197;50.164;8.012;2023-11-19T00:35:08;73058.19;;;-144.13;100.00
76374;BME280;65197;50.164;8.012;2023-11-19T00:37:35;73050.38;;;-144.13;100.00
76374;BME280;65197;50.164;8.012;2023-11-19T00:40:01;73038.69;;;-144.13;100.00
76374;BME280;65197;50.164;8.012;2023-11-19T00:42:26;73026.97;;;-144.13;100.00
76374;BME280;65197;50.164;8.012;2023-11-19T00:44:51;73019.16;;;-144.13;100.00
76374;BME280;65197;50.164;8.012;2023-11-19T00:47:18;73019.16;;;-144.13;100.00
76374;BME280;65197;50.164;8.012;2023-11-19T00:49:49;73019.16;;;-144.13;100.00
76374;BME280;65197;50.164;8.012;2023-11-19T00:52:16;73017.22;;;-144.13;100.00
76374;BME280;65197;50.164;8.012;2023-11-19T00:54:41;72999.66;;;-144.13;100.00
76374;BME280;65197;50.164;8.012;2023-11-19T00:57:07;72991.88;;;-144.13;100.00
76374;BME280;65197;50.164;8.012;2023-11-19T00:59:32;72984.06;;;-144.13;100.00
76374;BME280;65197;50.164;8.012;2023-11-19T01:01:58;72982.13;;;-144.13;100.00
76374;BME280;65197;50.164;8.012;2023-11-19T01:04:28;72982.13;;;-144.13;100.00
76374;BME280;65197;50.164;8.012;2023-11-19T01:06:53;72976.25;;;-144.13;100.00
76374;BME280;65197;50.164;8.012;2023-11-19T01:09:19;72964.56;;;-144.13;100.00
76374;BME280;65197;50.164;8.012;2023-11-19T01:11:45;72943.09;;;-144.13;100.00
76374;BME280;65197;50.164;8.012;2023-11-19T01:14:10;72941.16;;;-144.13;100.00
76374;BME280;65197;50.164;8.012;2023-11-19T01:16:35;72941.16;;;-144.13;100.00
76374;BME280;65197;50.164;8.012;2023-11-19T01:19:01;72933.34;;;-144.13;100.00
76374;BME280;65197;50.164;8.012;2023-11-19T01:21:30;72945.06;;;-144.13;100.00
76374;BME280;65197;50.164;8.012;2023-11-19T01:23:56;72943.09;;;-144.13;100.00
76374;BME280;65197;50.164;8.012;2023-11-19T01:26:22;72952.84;;;-144.13;100.00
76374;BME280;65197;50.164;8.012;2023-11-19T01:28:47;72948.97;;;-144.13;100.00
76374;BME280;65197;50.164;8.012;2023-11-19T01:31:16;72941.16;;;-144.13;100.00
76374;BME280;65197;50.164;8.012;2023-11-19T01:33:42;72939.19;;;-144.13;100.00
76374;BME280;65197;50.164;8.012;2023-11-19T01:36:08;72933.34;;;-144.13;100.00
76374;BME280;65197;50.164;8.012;2023-11-19T01:38:34;72925.56;;;-144.13;100.00
76374;BME280;65197;50.164;8.012;2023-11-19T01:41:00;72927.50;;;-144.13;100.00
76374;BME280;65197;50.164;8.012;2023-11-19T01:43:37;72915.78;;;-144.13;100.00
76374;BME280;65197;50.164;8.012;2023-11-19T01:46:05;72906.03;;;-144.13;100.00
76374;BME280;65197;50.164;8.012;2023-11-19T01:48:32;72913.84;;;-144.13;100.00
76374;BME280;65197;50.164;8.012;2023-11-19T01:50:59;72906.03;;;-144.13;100.00
76374;BME280;65197;50.164;8.012;2023-11-19T01:53:26;72906.03;;;-144.13;100.00
76374;BME280;65197;50.164;8.012;2023-11-19T01:55:52;72900.19;;;-144.13;100.00
76374;BME280;65197;50.164;8.012;2023-11-19T01:58:18;72896.28;;;-144.13;100.00
76374;BME280;65197;50.164;8.012;2023-11-19T02:00:45;72900.19;;;-144.13;100.00
76374;BME280;65197;50.164;8.012;2023-11-19T02:03:11;72898.25;;;-144.13;100.00
76374;BME280;65197;50.164;8.012;2023-11-19T02:05:37;72878.75;;;-144.13;100.00
76374;BME280;65197;50.164;8.012;2023-11-19T02:08:02;72870.94;;;-144.13;100.00
76374;BME280;65197;50.164;8.012;2023-11-19T02:10:28;72863.13;;;-144.13;100.00
76374;BME280;65197;50.164;8.012;2023-11-19T02:12:53;72867.03;;;-144.13;100.00
76374;BME280;65197;50.164;8.012;2023-11-19T02:15:20;72865.09;;;-144.13;100.00
76374;BME280;65197;50.164;8.012;2023-11-19T02:17:47;72851.44;;;-144.13;100.00
76374;BME280;65197;50.164;8.012;2023-11-19T02:20:12;72855.34;;;-144.13;100.00
76374;BME280;65197;50.164;8.012;2023-11-19T02:22:40;72861.19;;;-144.13;100.00
76374;BME280;65197;50.164;8.012;2023-11-19T02:25:08;72859.25;;;-144.13;100.00
76374;BME280;65197;50.164;8.012;2023-11-19T02:27:46;72851.44;;;-144.13;100.00
76374;BME280;65197;50.164;8.012;2023-11-19T02:30:16;72837.78;;;-144.13;100.00
76374;BME280;65197;50.164;8.012;2023-11-19T02:32:41;72835.84;;;-144.13;100.00
76374;BME280;65197;50.164;8.012;2023-11-19T02:35:07;72839.72;;;-144.13;100.00
76374;BME280;65197;50.164;8.012;2023-11-19T02:37:36;72831.94;;;-144.13;100.00
76374;BME280;65197;50.164;8.012;2023-11-19T02:40:01;72826.06;;;-144.13;100.00
76374;BME280;65197;50.164;8.012;2023-11-19T02:42:29;72820.22;;;-144.13;100.00
76374;BME280;65197;50.164;8.012;2023-11-19T02:44:55;72824.13;;;-144.13;100.00
76374;BME280;65197;50.164;8.012;2023-11-19T02:47:20;72804.63;;;-144.13;100.00
76374;BME280;65197;50.164;8.012;2023-11-19T02:49:49;72808.53;;;-144.13;100.00
76374;BME280;65197;50.164;8.012;2023-11-19T02:52:14;72796.81;;;-144.13;100.00
76374;BME280;65197;50.164;8.012;2023-11-19T02:54:40;72796.81;;;-144.13;100.00
76374;BME280;65197;50.164;8.012;2023-11-19T02:57:06;72792.94;;;-144.13;100.00
76374;BME280;65197;50.164;8.012;2023-11-19T02:59:35;72787.06;;;-144.13;100.00
76374;BME280;65197;50.164;8.012;2023-11-19T03:02:05;72789.03;;;-144.13;100.00
76374;BME280;65197;50.164;8.012;2023-11-19T03:04:32;72796.81;;;-144.13;100.00
76374;BME280;65197;50.164;8.012;2023-11-19T03:06:58;72792.94;;;-144.13;100.00
76374;BME280;65197;50.164;8.012;2023-11-19T03:09:23;72789.03;;;-144.13;100.00
76374;BME280;65197;50.164;8.012;2023-11-19T03:11:49;72800.72;;;-144.13;100.00
76374;BME280;65197;50.164;8.012;2023-11-19T03:14:15;72794.88;;;-144.13;100.00
76374;BME280;65197;50.164;8.012;2023-11-19T03:16:40;72787.06;;;-144.13;100.00
76374;BME280;65197;50.164;8.012;2023-11-19T03:19:05;72785.13;;;-144.13;100.00
76374;BME280;65197;50.164;8.012;2023-11-19T03:21:31;72781.22;;;-144.13;100.00
76374;BME280;65197;50.164;8.012;2023-11-19T03:23:57;72777.31;;;-144.13;100.00
76374;BME280;65197;50.164;8.012;2023-11-19T03:26:26;72781.22;;;-144.13;100.00
76374;BME280;65197;50.164;8.012;2023-11-19T03:28:52;72775.38;;;-144.13;100.00
76374;BME280;65197;50.164;8.012;2023-11-19T03:31:18;72777.31;;;-144.13;100.00
76374;BME280;65197;50.164;8.012;2023-11-19T03:33:44;72777.31;;;-144.13;100.00
76374;BME280;65197;50.164;8.012;2023-11-19T03:36:10;72773.41;;;-144.13;100.00
76374;BME280;65197;50.164;8.012;2023-11-19T03:38:35;72769.53;;;-144.13;100.00
76374;BME280;65197;50.164;8.012;2023-11-19T03:41:09;72769.53;;;-144.13;100.00
76374;BME280;65197;50.164;8.012;2023-11-19T03:43:35;72773.41;;;-144.13;100.00
76374;BME280;65197;50.164;8.012;2023-11-19T03:46:00;72765.63;;;-144.13;100.00
76374;BME280;65197;50.164;8.012;2023-11-19T03:48:25;72755.88;;;-144.13;100.00
76374;BME280;65197;50.164;8.012;2023-11-19T03:50:51;72759.75;;;-144.13;100.00
76374;BME280;65197;50.164;8.012;2023-11-19T03:53:16;72763.66;;;-144.13;100.00
76374;BME280;65197;50.164;8.012;2023-11-19T03:55:42;72763.66;;;-144.13;100.00
76374;BME280;65197;50.164;8.012;2023-11-19T03:58:07;72765.63;;;-144.13;100.00
76374;BME280;65197;50.164;8.012;2023-11-19T04:00:32;72753.91;;;-144.13;100.00
76374;BME280;65197;50.164;8.012;2023-11-19T04:02:58;72759.75;;;-144.13;100.00
76374;BME280;65197;50.164;8.012;2023-11-19T04:05:23;72751.97;;;-144.13;100.00
76374;BME280;65197;50.164;8.012;2023-11-19T04:07:49;72746.13;;;-144.13;100.00
76374;BME280;65197;50.164;8.012;2023-11-19T04:10:14;72744.16;;;-144.13;100.00
76374;BME280;65197;50.164;8.012;2023-11-19T04:12:41;72742.22;;;-144.13;100.00
76374;BME280;65197;50.164;8.012;2023-11-19T04:15:08;72730.50;;;-144.13;100.00
76374;BME280;65197;50.164;8.012;2023-11-19T04:17:33;72734.41;;;-144.13;100.00
76374;BME280;65197;50.164;8.012;2023-11-19T04:19:59;72732.47;;;-144.13;100.00
76374;BME280;65197;50.164;8.012;2023-11-19T04:22:25;72720.75;;;-144.13;100.00
76374;BME280;65197;50.164;8.012;2023-11-19T04:24:51;72707.09;;;-144.13;100.00
76374;BME280;65197;50.164;8.012;2023-11-19T04:27:16;72714.91;;;-144.13;100.00
76374;BME280;65197;50.164;8.012;2023-11-19T04:29:42;72707.09;;;-144.13;100.00
76374;BME280;65197;50.164;8.012;2023-11-19T04:32:07;72707.09;;;-144.13;100.00
76374;BME280;65197;50.164;8.012;2023-11-19T04:34:33;72705.16;;;-144.13;100.00
76374;BME280;65197;50.164;8.012;2023-11-19T04:36:58;72709.06;;;-144.13;100.00
76374;BME280;65197;50.164;8.012;2023-11-19T04:39:27;72707.09;;;-144.13;100.00
76374;BME280;65197;50.164;8.012;2023-11-19T04:41:52;72711.00;;;-144.13;100.00
76374;BME280;65197;50.164;8.012;2023-11-19T04:44:18;72703.22;;;-144.13;100.00
76374;BME280;65197;50.164;8.012;2023-11-19T04:46:44;72707.09;;;-144.13;100.00
76374;BME280;65197;50.164;8.012;2023-11-19T04:49:10;72699.31;;;-144.13;100.00
76374;BME280;65197;50.164;8.012;2023-11-19T04:51:45;72703.22;;;-144.13;100.00
76374;BME280;65197;50.164;8.012;2023-11-19T04:54:12;72695.41;;;-144.13;100.00
76374;BME280;65197;50.164;8.012;2023-11-19T04:56:37;72695.41;;;-144.13;100.00
76374;BME280;65197;50.164;8.012;2023-11-19T04:59:04;72695.41;;;-144.13;100.00
76374;BME280;65197;50.164;8.012;2023-11-19T05:01:33;72697.34;;;-144.13;100.00
76374;BME280;65197;50.164;8.012;2023-11-19T05:03:59;72695.41;;;-144.13;100.00
76374;BME280;65197;50.164;8.012;2023-11-19T05:06:29;72695.41;;;-144.13;100.00
76374;BME280;65197;50.164;8.012;2023-11-19T05:08:58;72693.47;;;-144.13;100.00
76374;BME280;65197;50.164;8.012;2023-11-19T05:11:26;72685.66;;;-144.13;100.00
76374;BME280;65197;50.164;8.012;2023-11-19T05:13:53;72683.69;;;-144.13;100.00
76374;BME280;65197;50.164;8.012;2023-11-19T05:16:18;72679.81;;;-144.13;100.00
76374;BME280;65197;50.164;8.012;2023-11-19T05:18:46;72672.00;;;-144.13;100.00
76374;BME280;65197;50.164;8.012;2023-11-19T05:21:11;72672.00;;;-144.13;100.00
76374;BME280;65197;50.164;8.012;2023-11-19T05:23:36;72666.16;;;-144.13;100.00
76374;BME280;65197;50.164;8.012;2023-11-19T05:26:02;72666.16;;;-144.13;100.00
76374;BME280;65197;50.164;8.012;2023-11-19T05:28:27;72652.50;;;-144.13;100.00
76374;BME280;65197;50.164;8.012;2023-11-19T05:30:53;72652.50;;;-144.13;100.00
76374;BME280;65197;50.164;8.012;2023-11-19T05:33:18;72652.50;;;-144.13;100.00
76374;BME280;65197;50.164;8.012;2023-11-19T05:35:44;72656.41;;;-144.13;100.00
76374;BME280;65197;50.164;8.012;2023-11-19T05:38:09;72648.59;;;-144.13;100.00
76374;BME280;65197;50.164;8.012;2023-11-19T05:40:35;72652.50;;;-144.13;100.00
76374;BME280;65197;50.164;8.012;2023-11-19T05:43:00;72652.50;;;-144.13;100.00
76374;BME280;65197;50.164;8.012;2023-11-19T05:45:26;72654.44;;;-144.13;100.00
76374;BME280;65197;50.164;8.012;2023-11-19T05:47:51;72658.34;;;-144.13;100.00
76374;BME280;65197;50.164;8.012;2023-11-19T05:50:17;72648.59;;;-144.13;100.00
76374;BME280;65197;50.164;8.012;2023-11-19T05:52:43;72652.50;;;-144.13;100.00
76374;BME280;65197;50.164;8.012;2023-11-19T05:55:08;72652.50;;;-144.13;100.00
76374;BME280;65197;50.164;8.012;2023-11-19T05:57:38;72658.34;;;-144.13;100.00
76374;BME280;65197;50.164;8.012;2023-11-19T06:00:04;72656.41;;;-144.13;100.00
76374;BME280;65197;50.164;8.012;2023-11-19T06:02:36;72660.31;;;-144.13;100.00
76374;BME280;65197;50.164;8.012;2023-11-19T06:05:03;72652.50;;;-144.13;100.00
76374;BME280;65197;50.164;8.012;2023-11-19T06:07:31;72662.25;;;-144.13;100.00
76374;BME280;65197;50.164;8.012;2023-11-19T06:09:56;72664.19;;;-144.13;100.00
76374;BME280;65197;50.164;8.012;2023-11-19T06:12:22;72668.09;;;-144.13;100.00
76374;BME280;65197;50.164;8.012;2023-11-19T06:14:47;72668.09;;;-144.13;100.00
76374;BME280;65197;50.164;8.012;2023-11-19T06:17:13;72668.09;;;-144.13;100.00
76374;BME280;65197;50.164;8.012;2023-11-19T06:19:38;72672.00;;;-144.13;100.00
76374;BME280;65197;50.164;8.012;2023-11-19T06:22:04;72672.00;;;-144.13;100.00
76374;BME280;65197;50.164;8.012;2023-11-19T06:24:29;72675.91;;;-144.13;100.00
76374;BME280;65197;50.164;8.012;2023-11-19T06:26:55;72677.84;;;-144.13;100.00
76374;BME280;65197;50.164;8.012;2023-11-19T06:29:20;72695.41;;;-144.13;100.00
76374;BME280;65197;50.164;8.012;2023-11-19T06:31:46;72687.59;;;-144.13;100.00
76374;BME280;65197;50.164;8.012;2023-11-19T06:34:14;72675.91;;;-144.13;100.00
76374;BME280;65197;50.164;8.012;2023-11-19T06:36:39;72691.50;;;-144.13;100.00
76374;BME280;65197;50.164;8.012;2023-11-19T06:39:05;72691.50;;;-144.13;100.00
76374;BME280;65197;50.164;8.012;2023-11-19T06:41:31;72697.34;;;-144.13;100.00
76374;BME280;65197;50.164;8.012;2023-11-19T06:43:56;72701.25;;;-144.13;100.00
76374;BME280;65197;50.164;8.012;2023-11-19T06:46:22;72707.09;;;-144.13;100.00
76374;BME280;65197;50.164;8.012;2023-11-19T06:48:47;72695.41;;;-144.13;100.00
76374;BME280;65197;50.164;8.012;2023-11-19T06:51:12;72707.09;;;-144.13;100.00
76374;BME280;65197;50.164;8.012;2023-11-19T06:53:38;72711.00;;;-144.13;100.00
76374;BME280;65197;50.164;8.012;2023-11-19T06:56:06;72718.81;;;-144.13;100.00
76374;BME280;65197;50.164;8.012;2023-11-19T06:58:36;72720.75;;;-144.13;100.00
76374;BME280;65197;50.164;8.012;2023-11-19T07:01:01;72728.56;;;-144.13;100.00
76374;BME280;65197;50.164;8.012;2023-11-19T07:03:26;72718.81;;;-144.13;100.00
76374;BME280;65197;50.164;8.012;2023-11-19T07:05:52;72720.75;;;-144.13;100.00
76374;BME280;65197;50.164;8.012;2023-11-19T07:08:17;72722.72;;;-144.13;100.00
76374;BME280;65197;50.164;8.012;2023-11-19T07:10:43;72714.91;;;-144.13;100.00
76374;BME280;65197;50.164;8.012;2023-11-19T07:13:08;72712.97;;;-144.13;100.00
76374;BME280;65197;50.164;8.012;2023-11-19T07:15:33;72714.91;;;-144.13;100.00
76374;BME280;65197;50.164;8.012;2023-11-19T07:17:59;72707.09;;;-144.13;100.00
76374;BME280;65197;50.164;8.012;2023-11-19T07:20:25;72699.31;;;-144.13;100.00
76374;BME280;65197;50.164;8.012;2023-11-19T07:22:52;72707.09;;;-144.13;100.00
76374;BME280;65197;50.164;8.012;2023-11-19T07:25:17;72703.22;;;-144.13;100.00
76374;BME280;65197;50.164;8.012;2023-11-19T07:27:43;72701.25;;;-144.13;100.00
76374;BME280;65197;50.164;8.012;2023-11-19T07:30:08;72703.22;;;-144.13;100.00
76374;BME280;65197;50.164;8.012;2023-11-19T07:32:34;72712.97;;;-144.13;100.00
76374;BME280;65197;50.164;8.012;2023-11-19T07:34:59;72714.91;;;-144.13;100.00
76374;BME280;65197;50.164;8.012;2023-11-19T07:37:25;72711.00;;;-144.13;100.00
76374;BME280;65197;50.164;8.012;2023-11-19T07:39:50;72705.16;;;-144.13;100.00
76374;BME280;65197;50.164;8.012;2023-11-19T07:42:15;72705.16;;;-144.13;100.00
76374;BME280;65197;50.164;8.012;2023-11-19T07:44:41;72707.09;;;-144.13;100.00
76374;BME280;65197;50.164;8.012;2023-11-19T07:47:06;72703.22;;;-144.13;100.00
76374;BME280;65197;50.164;8.012;2023-11-19T07:49:32;72707.09;;;-144.13;100.00
76374;BME280;65197;50.164;8.012;2023-11-19T07:51:59;72707.09;;;-144.13;100.00
76374;BME280;65197;50.164;8.012;2023-11-19T07:54:24;72709.06;;;-144.13;100.00
76374;BME280;65197;50.164;8.012;2023-11-19T07:56:49;72703.22;;;-144.13;100.00
76374;BME280;65197;50.164;8.012;2023-11-19T07:59:15;72711.00;;;-144.13;100.00
76374;BME280;65197;50.164;8.012;2023-11-19T08:01:41;72711.00;;;-144.13;100.00
76374;BME280;65197;50.164;8.012;2023-11-19T08:04:06;72709.06;;;-144.13;100.00
76374;BME280;65197;50.164;8.012;2023-11-19T08:06:32;72711.00;;;-144.13;100.00
76374;BME280;65197;50.164;8.012;2023-11-19T08:08:57;72711.00;;;-144.13;100.00
76374;BME280;65197;50.164;8.012;2023-11-19T08:11:22;72711.00;;;-144.13;100.00
76374;BME280;65197;50.164;8.012;2023-11-19T08:13:48;72716.84;;;-144.13;100.00
76374;BME280;65197;50.164;8.012;2023-11-19T08:16:13;72714.91;;;-144.13;100.00
76374;BME280;65197;50.164;8.012;2023-11-19T08:18:42;72535.47;;;-144.13;100.00
76374;BME280;65197;50.164;8.012;2023-11-19T08:21:08;72578.38;;;-144.13;100.00
76374;BME280;65197;50.164;8.012;2023-11-19T08:23:33;72609.59;;;-144.13;100.00
76374;BME280;65197;50.164;8.012;2023-11-19T08:25:59;72670.06;;;-144.13;100.00
76374;BME280;65197;50.164;8.012;2023-11-19T08:28:25;72720.75;;;-144.13;100.00
76374;BME280;65197;50.164;8.012;2023-11-19T08:30:50;72722.72;;;-144.13;100.00
76374;BME280;65197;50.164;8.012;2023-11-19T08:33:16;72730.50;;;-144.13;100.00
76374;BME280;65197;50.164;8.012;2023-11-19T08:35:42;72722.72;;;-144.13;100.00
76374;BME280;65197;50.164;8.012;2023-11-19T08:38:07;72738.31;;;-144.13;100.00
76374;BME280;65197;50.164;8.012;2023-11-19T08:40:33;72730.50;;;-144.13;100.00
76374;BME280;65197;50.164;8.012;2023-11-19T08:42:58;72750.00;;;-144.13;100.00
76374;BME280;65197;50.164;8.012;2023-11-19T08:45:24;72740.25;;;-144.13;100.00
76374;BME280;65197;50.164;8.012;2023-11-19T08:47:49;72753.91;;;-144.13;100.00
76374;BME280;65197;50.164;8.012;2023-11-19T08:50:15;72732.47;;;-144.13;100.00
76374;BME280;65197;50.164;8.012;2023-11-19T08:52:41;72586.19;;;-144.13;100.00
76374;BME280;65197;50.164;8.012;2023-11-19T08:55:06;72473.06;;;-144.13;100.00
76374;BME280;65197;50.164;8.012;2023-11-19T08:57:32;72379.47;;;-144.13;100.00
76374;BME280;65197;50.164;8.012;2023-11-19T08:59:58;72324.88;;;-144.13;100.00
76374;BME280;65197;50.164;8.012;2023-11-19T09:02:23;72289.75;;;-144.13;100.00
76374;BME280;65197;50.164;8.012;2023-11-19T09:04:49;72313.16;;;-144.13;100.00
76374;BME280;65197;50.164;8.012;2023-11-19T09:07:14;72315.13;;;-144.13;100.00
76374;BME280;65197;50.164;8.012;2023-11-19T09:09:39;72398.97;;;-144.13;100.00
76374;BME280;65197;50.164;8.012;2023-11-19T09:12:06;72332.66;;;-144.13;100.00
76374;BME280;65197;50.164;8.012;2023-11-19T09:14:32;72356.06;;;-144.13;100.00
76374;BME280;65197;50.164;8.012;2023-11-19T09:16:58;72379.47;;;-144.13;100.00
76374;BME280;65197;50.164;8.012;2023-11-19T09:19:24;72358.00;;;-144.13;100.00
76374;BME280;65197;50.164;8.012;2023-11-19T09:21:49;72395.06;;;-144.13;100.00
76374;BME280;65197;50.164;8.012;2023-11-19T09:24:15;72266.34;;;-144.13;99.44
76374;BME280;65197;50.164;8.012;2023-11-19T09:26:40;72289.75;;;-144.13;97.52
76374;BME280;65197;50.164;8.012;2023-11-19T09:29:07;72239.06;;;-144.13;98.21
76374;BME280;65197;50.164;8.012;2023-11-19T09:31:33;72258.56;;;-144.13;93.31
76374;BME280;65197;50.164;8.012;2023-11-19T09:33:58;72309.25;;;-144.13;96.69
76374;BME280;65197;50.164;8.012;2023-11-19T09:36:23;72227.34;;;-144.13;92.48
76374;BME280;65197;50.164;8.012;2023-11-19T09:38:49;72231.25;;;-144.13;91.83
76374;BME280;65197;50.164;8.012;2023-11-19T09:41:15;72278.06;;;-144.13;92.79
76374;BME280;65197;50.164;8.012;2023-11-19T09:43:41;72350.22;;;-144.13;94.35
76374;BME280;65197;50.164;8.012;2023-11-19T09:46:09;72231.25;;;-144.13;91.16
76374;BME280;65197;50.164;8.012;2023-11-19T09:48:37;72219.56;;;-144.13;90.39
76374;BME280;65197;50.164;8.012;2023-11-19T09:51:07;72231.25;;;-144.13;90.18
76374;BME280;65197;50.164;8.012;2023-11-19T09:53:33;72311.22;;;-144.13;91.67
76374;BME280;65197;50.164;8.012;2023-11-19T09:56:00;72317.06;;;-144.13;89.02
76374;BME280;65197;50.164;8.012;2023-11-19T09:58:28;72344.38;;;-144.13;89.76
76374;BME280;65197;50.164;8.012;2023-11-19T10:00:54;72262.47;;;-144.13;87.20
76374;BME280;65197;50.164;8.012;2023-11-19T10:03:19;72241.00;;;-144.13;87.87
76374;BME280;65197;50.164;8.012;2023-11-19T10:05:45;72274.16;;;-144.13;88.55
76374;BME280;65197;50.164;8.012;2023-11-19T10:08:10;72274.16;;;-144.13;84.57
76374;BME280;65197;50.164;8.012;2023-11-19T10:10:37;72297.56;;;-144.13;87.62
76374;BME280;65197;50.164;8.012;2023-11-19T10:13:02;72317.06;;;-144.13;86.63
76374;BME280;65197;50.164;8.012;2023-11-19T10:15:35;72186.41;;;-144.13;82.44
76374;BME280;65197;50.164;8.012;2023-11-19T10:18:01;72223.47;;;-144.13;80.76
76374;BME280;65197;50.164;8.012;2023-11-19T10:20:26;72225.41;;;-144.13;80.23
76374;BME280;65197;50.164;8.012;2023-11-19T10:22:55;72168.84;;;-144.13;78.27
76374;BME280;65197;50.164;8.012;2023-11-19T10:25:26;72256.59;;;-144.13;80.29
76374;BME280;65197;50.164;8.012;2023-11-19T10:27:52;72278.06;;;-144.13;83.76
76374;BME280;65197;50.164;8.012;2023-11-19T10:30:25;72223.47;;;-144.13;81.23
76374;BME280;65197;50.164;8.012;2023-11-19T10:35:28;72352.16;;;-144.13;83.38
76374;BME280;65197;50.164;8.012;2023-11-19T10:37:53;72451.63;;;-144.13;90.00
76374;BME280;65197;50.164;8.012;2023-11-19T10:40:18;72471.13;;;-144.13;92.74
76374;BME280;65197;50.164;8.012;2023-11-19T10:42:44;72494.53;;;-144.13;94.66
76374;BME280;65197;50.164;8.012;2023-11-19T10:45:22;72547.19;;;-144.13;98.46
76374;BME280;65197;50.164;8.012;2023-11-19T10:47:51;72527.69;;;-144.13;97.97
76374;BME280;65197;50.164;8.012;2023-11-19T10:50:17;72519.88;;;-144.13;97.86
76374;BME280;65197;50.164;8.012;2023-11-19T10:52:44;72523.78;;;-144.13;99.47
76374;BME280;65197;50.164;8.012;2023-11-19T10:55:11;72531.59;;;-144.13;99.86
76374;BME280;65197;50.164;8.012;2023-11-19T10:57:37;72482.81;;;-144.13;100.00
76374;BME280;65197;50.164;8.012;2023-11-19T11:00:06;72496.47;;;-144.13;99.06
76374;BME280;65197;50.164;8.012;2023-11-19T11:02:40;72478.94;;;-144.13;99.59
76374;BME280;65197;50.164;8.012;2023-11-19T11:05:07;72508.19;;;-144.13;97.77
76374;BME280;65197;50.164;8.012;2023-11-19T11:07:33;72523.78;;;-144.13;98.80
76374;BME280;65197;50.164;8.012;2023-11-19T11:10:01;72529.63;;;-144.13;96.57
76374;BME280;65197;50.164;8.012;2023-11-19T11:12:28;72515.97;;;-144.13;98.93
76374;BME280;65197;50.164;8.012;2023-11-19T11:14:55;72523.78;;;-144.13;97.96
76374;BME280;65197;50.164;8.012;2023-11-19T11:17:24;72512.09;;;-144.13;96.78
76374;BME280;65197;50.164;8.012;2023-11-19T11:19:53;72515.97;;;-144.13;98.60
76374;BME280;65197;50.164;8.012;2023-11-19T11:22:20;72498.44;;;-144.13;98.27
76374;BME280;65197;50.164;8.012;2023-11-19T11:27:48;72480.88;;;-144.13;96.02
76374;BME280;65197;50.164;8.012;2023-11-19T11:30:39;72486.72;;;-144.13;95.44
76374;BME280;65197;50.164;8.012;2023-11-19T11:36:21;72482.81;;;-144.13;91.20
76374;BME280;65197;50.164;8.012;2023-11-19T11:38:48;72498.44;;;-144.13;92.03
76374;BME280;65197;50.164;8.012;2023-11-19T11:41:21;72486.72;;;-144.13;92.18
76374;BME280;65197;50.164;8.012;2023-11-19T11:43:56;72478.94;;;-144.13;90.53
76374;BME280;65197;50.164;8.012;2023-11-19T11:49:01;72436.03;;;-144.13;88.02
76374;BME280;65197;50.164;8.012;2023-11-19T11:54:08;72414.56;;;-144.13;86.18
76374;BME280;65197;50.164;8.012;2023-11-19T11:56:36;72398.97;;;-144.13;83.75
76374;BME280;65197;50.164;8.012;2023-11-19T11:59:02;72398.97;;;-144.13;84.10
76374;BME280;65197;50.164;8.012;2023-11-19T12:01:27;72369.72;;;-144.13;81.54
76374;BME280;65197;50.164;8.012;2023-11-19T12:03:55;72324.88;;;-144.13;82.01
76374;BME280;65197;50.164;8.012;2023-11-19T12:06:22;72283.91;;;-144.13;78.89
76374;BME280;65197;50.164;8.012;2023-11-19T12:08:47;72250.75;;;-144.13;79.69
76374;BME280;65197;50.164;8.012;2023-11-19T12:11:12;72258.56;;;-144.13;76.81
76374;BME280;65197;50.164;8.012;2023-11-19T12:13:54;72266.34;;;-144.13;78.81
76374;BME280;65197;50.164;8.012;2023-11-19T12:16:24;72270.25;;;-144.13;80.77
76374;BME280;65197;50.164;8.012;2023-11-19T12:18:50;72252.72;;;-144.13;79.52
76374;BME280;65197;50.164;8.012;2023-11-19T12:21:31;72274.16;;;-144.13;75.83
76374;BME280;65197;50.164;8.012;2023-11-19T12:23:58;72278.06;;;-144.13;78.97
76374;BME280;65197;50.164;8.012;2023-11-19T12:26:33;72274.16;;;-144.13;75.61
76374;BME280;65197;50.164;8.012;2023-11-19T12:29:00;72239.06;;;-144.13;74.04
76374;BME280;65197;50.164;8.012;2023-11-19T12:31:25;72231.25;;;-144.13;77.09
76374;BME280;65197;50.164;8.012;2023-11-19T12:33:51;72258.56;;;-144.13;76.31
76374;BME280;65197;50.164;8.012;2023-11-19T12:36:17;72242.97;;;-144.13;75.53
76374;BME280;65197;50.164;8.012;2023-11-19T12:38:43;72252.72;;;-144.13;75.38
76374;BME280;65197;50.164;8.012;2023-11-19T12:41:10;72256.59;;;-144.13;75.57
76374;BME280;65197;50.164;8.012;2023-11-19T12:43:37;72239.06;;;-144.13;75.41